Latest Weather Observations for Camooweal

IDD60801

Issued at 12:31 pm CST Wednesday 29 March 2017 (issued every 30 minutes, with the page automatically refreshed every 10 minutes)

About weather observations | Map of weather stations | Latest weather observations for NT | Other Formats
Station Details ID: 037010 Name: CAMOOWEAL TOWNSHIP Lat: -19.92 Lon: 138.12 Height: 231.2 m
Data from the previous 72 hours. | See also: Recent months at Camooweal
Date/Time
CST
Temp
°C
App
Temp
°C
Dew
Point
°C
Rel
Hum
%
Delta-T
°C
Wind Press
QNH
hPa
Press
MSL
hPa
Rain since
9am
mm
Dir  Spd
km/h
Gust
km/h
Spd
kts
Gust
kts
29/12:30pm 40.4 38.7 12.3 19 17.4 ESE 13 24 7 13 1006.4 1004.8 0.0
29/12:00pm 39.3 37.9 12.2 20 16.6 SSE 11 24 6 13 1007.0 1005.4 0.0
29/11:30am 38.8 37.9 12.5 21 16.2 NE 9 17 5 9 1007.5 1005.9 0.0
29/11:00am 38.5 36.8 12.3 21 16.0 NE 13 20 7 11 1008.0 1006.4 0.0
29/10:30am 37.9 36.6 13.8 23 15.1 ENE 13 17 7 9 1008.2 1006.6 0.0
29/10:00am 37.1 35.6 13.2 24 14.7 E 13 20 7 11 1008.3 1006.7 0.0
29/09:30am 35.5 34.0 13.1 26 13.7 SE 13 22 7 12 1008.5 1006.9 0.0
29/09:00am 34.2 31.9 13.1 28 12.9 SSE 17 22 9 12 1008.5 1006.9 0.0
29/08:30am 32.7 30.9 13.4 31 11.8 SSE 15 20 8 11 1008.5 1006.9 0.0
29/08:00am 30.3 29.1 12.7 34 10.5 SSE 11 15 6 8 1008.3 1006.7 0.0
29/07:30am 27.0 28.5 14.7 47 7.5 CALM 0 0 0 0 1008.0 1006.4 0.0
29/07:00am 25.5 26.2 14.6 51 6.6 E 4 9 2 5 1007.7 1006.1 0.0
29/06:30am 24.6 26.1 14.7 54 6.0 CALM 0 2 0 1 1007.3 1005.7 0.0
29/06:00am 24.8 25.0 14.3 52 6.3 SW 6 6 3 3 1007.0 1005.4 0.0
29/05:30am 25.4 25.7 14.5 51 6.6 SW 6 7 3 4 1006.7 1005.1 0.0
29/05:00am 25.6 25.7 14.4 50 6.7 SW 7 7 4 4 1006.5 1004.9 0.0
29/04:30am 26.1 26.1 14.2 48 7.2 SSW 7 7 4 4 1006.3 1004.7 0.0
29/04:00am 26.0 25.5 14.8 50 6.8 SSW 11 15 6 8 1006.3 1004.7 0.0
29/03:30am 25.5 25.3 16.6 58 5.6 SSW 13 20 7 11 1006.2 1004.6 0.0
29/03:00am 25.9 28.4 17.3 59 5.4 CALM 0 0 0 0 1005.8 1004.3 0.0
29/02:30am 27.2 28.8 14.9 47 7.5 CALM 0 0 0 0 1005.9 1004.4 0.0
29/02:00am 27.9 29.0 14.5 44 8.1 SW 2 9 1 5 1005.9 1004.4 0.0
29/01:30am 27.7 27.5 12.9 40 8.8 E 6 9 3 5 1006.2 1004.6 0.0
29/01:00am 30.4 29.6 12.8 34 10.5 ENE 9 11 5 6 1006.4 1004.8 0.0
29/12:30am 30.7 29.4 12.6 33 10.8 ENE 11 13 6 7 1006.7 1005.1 0.0
29/12:00am 30.9 29.7 12.8 33 10.8 E 11 13 6 7 1007.0 1005.4 0.0
 
Date/Time
CST
Temp
°C
App
Temp
°C
Dew
Point
°C
Rel
Hum
%
Delta-T
°C
Wind Press
QNH
hPa
Press
MSL
hPa
Rain since
9am
mm
Dir  Spd
km/h
Gust
km/h
Spd
kts
Gust
kts
28/11:30pm 30.5 29.2 12.4 33 10.8 E 11 13 6 7 1007.2 1005.6 0.0
28/11:00pm 31.8 31.3 12.6 31 11.5 ENE 7 11 4 6 1007.2 1005.6 0.0
28/10:30pm 31.5 30.9 12.3 31 11.5 E 7 9 4 5 1007.3 1005.7 0.0
28/10:00pm 31.3 30.5 11.7 30 11.6 SE 7 11 4 6 1007.4 1005.8 0.0
28/09:30pm 32.1 31.0 11.8 29 12.1 ESE 9 11 5 6 1007.1 1005.5 0.0
28/09:00pm 32.2 30.6 11.4 28 12.3 ESE 11 15 6 8 1006.7 1005.1 0.0
28/08:30pm 33.0 31.4 11.5 27 12.8 SSE 11 13 6 7 1006.2 1004.6 0.0
28/08:00pm 34.1 32.0 11.3 25 13.5 SSE 13 17 7 9 1005.7 1004.2 0.0
28/07:30pm 34.2 32.2 11.4 25 13.6 SSE 13 15 7 8 1005.3 1003.7 0.0
28/07:00pm 35.1 33.3 10.9 23 14.3 SSE 11 13 6 7 1005.0 1003.4 0.0
28/06:30pm 37.4 35.0 9.9 19 16.2 SE 13 19 7 10 1004.7 1003.1 0.0
28/06:00pm 39.6 35.9 10.0 17 17.6 SE 20 30 11 16 1004.3 1002.7 0.0
28/05:30pm 40.5 36.3 9.8 16 18.3 SE 22 32 12 17 1004.2 1002.6 0.0
28/05:00pm 41.1 35.6 9.3 15 18.8 SE 28 41 15 22 1004.1 1002.5 0.0
28/04:30pm 41.8 36.9 9.9 15 19.2 SE 26 35 14 19 1004.1 1002.5 0.0
28/04:00pm 40.8 35.3 9.1 15 18.7 SE 28 43 15 23 1004.3 1002.7 0.0
28/03:30pm 42.3 37.9 10.3 15 19.4 SE 24 41 13 22 1004.6 1003.0 0.0
28/03:00pm 41.1 36.8 9.3 15 18.8 SE 22 35 12 19 1004.9 1003.3 0.0
28/02:30pm 42.1 37.5 11.1 16 19.0 SSE 26 41 14 22 1005.1 1003.5 0.0
28/02:00pm 40.8 36.3 10.0 16 18.4 ESE 24 35 13 19 1005.4 1003.8 0.0
28/01:30pm 41.4 36.5 11.4 17 18.4 ESE 28 39 15 21 1005.9 1004.4 0.0
28/01:06pm 41.4 36.5 11.4 17 18.3 SE 28 46 15 25 1006.4 1004.8 0.0
28/01:00pm 41.3 37.5 11.3 17 18.3 ESE 22 37 12 20 1006.4 1004.8 0.0
28/12:30pm 41.6 37.4 12.5 18 18.1 ESE 26 39 14 21 1007.0 1005.4 0.0
28/12:00pm 41.0 36.3 12.0 18 17.8 SE 28 44 15 24 1007.7 1006.1 0.0
28/11:30am 40.3 38.0 13.0 20 17.0 SE 17 35 9 19 1008.1 1006.5 0.0
28/11:00am 39.6 36.4 13.2 21 16.4 E 22 32 12 17 1008.7 1007.1 0.0
28/10:30am 38.5 38.2 14.3 23 15.2 E 9 15 5 8 1009.0 1007.4 0.0
28/10:00am 37.5 37.3 13.5 24 14.9 NE 7 13 4 7 1009.5 1007.9 0.0
28/09:30am 37.7 37.0 14.3 25 14.7 ENE 11 17 6 9 1009.7 1008.2 0.0
28/09:00am 35.9 34.7 14.0 27 13.6 ENE 13 19 7 10 1009.7 1008.2 0.0
28/08:30am 34.6 34.5 14.0 29 12.8 ENE 7 11 4 6 1009.8 1008.3 0.0
28/08:00am 31.4 33.3 15.8 39 9.8 CALM 0 0 0 0 1009.5 1007.9 0.0
28/07:30am 29.0 30.8 15.5 44 8.4 CALM 0 0 0 0 1009.3 1007.7 0.0
28/07:00am 25.7 28.0 17.6 61 5.1 NNE 2 6 1 3 1009.0 1007.4 0.0
28/06:30am 25.4 28.0 17.6 62 4.9 CALM 0 6 0 3 1008.6 1007.0 0.0
28/06:00am 24.6 27.2 17.6 65 4.4 CALM 0 0 0 0 1008.4 1006.8 0.0
28/05:30am 24.6 27.5 18.3 68 4.0 CALM 0 0 0 0 1008.3 1006.7 0.0
28/05:00am 25.1 28.0 18.1 65 4.5 CALM 0 0 0 0 1008.2 1006.6 0.0
28/04:30am 25.2 28.4 18.9 68 4.1 CALM 0 0 0 0 1008.1 1006.5 0.0
28/04:00am 25.2 28.0 17.9 64 4.6 CALM 0 0 0 0 1008.1 1006.5 0.0
28/03:30am 25.5 26.6 16.6 58 5.5 SSW 6 7 3 4 1008.1 1006.5 0.0
28/03:00am 25.1 26.6 18.1 65 4.5 SSW 7 7 4 4 1008.3 1006.7 0.0
28/02:30am 24.9 27.3 16.9 61 5.0 CALM 0 0 0 0 1008.4 1006.8 0.0
28/02:00am 27.3 27.7 14.7 46 7.7 ESE 6 6 3 3 1008.3 1006.7 0.0
28/01:30am 26.7 27.2 15.1 49 7.1 ESE 6 7 3 4 1008.5 1006.9 0.0
28/01:00am 26.7 28.4 15.1 49 7.1 CALM 0 0 0 0 1008.7 1007.1 0.0
28/12:30am 26.3 28.4 16.3 54 6.2 CALM 0 0 0 0 1008.8 1007.2 0.0
28/12:00am 27.2 28.8 14.9 47 7.5 CALM 0 0 0 0 1008.8 1007.2 0.0
 
Date/Time
CST
Temp
°C
App
Temp
°C
Dew
Point
°C
Rel
Hum
%
Delta-T
°C
Wind Press
QNH
hPa
Press
MSL
hPa
Rain since
9am
mm
Dir  Spd
km/h
Gust
km/h
Spd
kts
Gust
kts
27/11:30pm 26.8 29.0 16.4 53 6.5 CALM 0 0 0 0 1008.8 1007.2 0.0
27/11:00pm 29.4 29.1 13.2 37 9.7 NE 7 11 4 6 1008.8 1007.2 0.0
27/10:30pm 29.7 28.9 13.0 35 10.0 ENE 9 11 5 6 1008.9 1007.3 0.0
27/10:00pm 30.6 30.0 13.4 35 10.4 NE 9 13 5 7 1008.9 1007.3 0.0
27/09:30pm 30.2 30.4 14.3 38 9.7 ESE 6 7 3 4 1008.5 1006.9 0.0
27/09:00pm 28.8 29.1 13.5 39 9.2 SSE 4 6 2 3 1008.2 1006.6 0.0
27/08:30pm 31.3 31.4 14.0 35 10.6 ESE 6 7 3 4 1007.9 1006.3 0.0
27/08:00pm 31.1 31.0 13.4 34 10.7 ESE 6 7 3 4 1007.5 1005.9 0.0
27/07:30pm 32.5 33.0 11.6 28 12.4 CALM 0 0 0 0 1007.1 1005.5 0.0
27/07:00pm 35.2 34.4 11.6 24 14.1 E 7 9 4 5 1006.9 1005.3 0.0
27/06:30pm 36.5 35.6 11.3 22 15.1 ENE 7 9 4 5 1006.7 1005.1 0.0
27/06:00pm 37.8 35.8 10.2 19 16.3 ESE 11 19 6 10 1006.4 1004.8 0.0
27/05:30pm 39.2 37.1 9.7 17 17.5 SE 11 26 6 14 1006.2 1004.6 0.0
27/05:00pm 39.4 36.9 9.8 17 17.5 SE 13 20 7 11 1005.8 1004.3 0.0
27/04:30pm 39.9 36.2 10.2 17 17.8 SSE 20 30 11 16 1005.9 1004.4 0.0
27/04:00pm 40.2 37.4 11.3 18 17.5 S 17 28 9 15 1006.0 1004.5 0.0
27/03:30pm 40.1 37.9 12.1 19 17.2 SE 15 35 8 19 1006.2 1004.6 0.0
27/03:00pm 39.8 37.0 12.6 20 16.8 SSE 19 33 10 18 1006.4 1004.8 0.0
27/02:30pm 39.6 37.8 13.2 21 16.5 SE 15 26 8 14 1007.0 1005.4 0.0
27/02:00pm 39.3 36.4 12.9 20 16.3 SSW 20 30 11 16 1007.3 1005.7 0.0
27/01:30pm 39.1 36.6 13.5 22 16.0 S 19 24 10 13 1007.8 1006.2 0.0
27/01:00pm 38.3 36.6 13.5 23 15.4 S 15 28 8 15 1008.3 1006.7 0.0
27/12:30pm 37.7 38.0 16.1 28 13.9 SE 9 17 5 9 1008.8 1007.2 0.0
27/12:00pm 37.9 38.5 16.8 29 13.7 SSE 9 20 5 11 1009.5 1007.9 0.0
27/11:30am 37.4 38.4 16.9 30 13.3 WNW 7 13 4 7 1010.2 1008.7 0.0
27/11:00am 37.6 37.9 16.0 28 13.9 SE 9 20 5 11 1010.7 1009.1 0.0
27/10:30am 35.9 37.1 19.8 39 10.8 SW 13 20 7 11 1011.0 1009.4 0.0
27/10:00am 35.1 36.3 19.9 41 10.2 SSW 13 24 7 13 1011.3 1009.7 0.0
27/09:30am 34.4 36.0 20.7 44 9.3 SW 13 22 7 12 1011.5 1009.9 0.0
27/09:00am 33.6 35.0 21.1 48 8.5 WSW 15 20 8 11 1011.5 1009.9 0.0
27/08:30am 32.4 34.8 21.6 53 7.4 WSW 11 15 6 8 1011.3 1009.7 0.0
27/08:00am 30.3 33.0 22.2 62 5.5 WSW 11 17 6 9 1011.5 1009.9 0.0
27/07:30am 28.2 31.2 22.0 69 4.2 W 9 13 5 7 1011.3 1009.7 0.0
27/07:00am 26.9 31.3 22.1 75 3.2 NNW 2 9 1 5 1011.2 1009.6 0.0
27/06:30am 26.2 29.5 21.8 77 3.0 NNW 7 9 4 5 1010.9 1009.3 0.0
27/06:00am 26.3 29.8 21.9 77 3.0 NW 6 7 3 4 1010.7 1009.1 0.0
27/05:30am 26.2 29.6 21.6 76 3.1 NNW 6 7 3 4 1010.3 1008.8 0.0
27/05:00am 26.5 29.7 21.7 75 3.2 NNW 7 9 4 5 1010.1 1008.6 0.0
27/04:30am 26.7 29.5 21.5 73 3.5 NNW 9 11 5 6 1009.8 1008.3 0.0
27/04:00am 27.3 30.5 21.6 71 3.8 NNW 7 11 4 6 1009.4 1007.8 0.0
27/03:30am 27.4 30.4 21.2 69 4.2 NNW 7 9 4 5 1009.3 1007.7 0.0
27/03:00am 28.0 30.9 21.1 66 4.6 N 7 9 4 5 1009.4 1007.8 0.0
27/02:30am 28.6 30.9 20.6 62 5.3 NNW 9 13 5 7 1009.5 1007.9 0.0
27/02:00am 29.3 31.5 19.6 56 6.4 N 7 9 4 5 1009.7 1008.2 0.0
27/01:30am 30.0 31.7 19.4 53 7.0 N 9 11 5 6 1009.8 1008.3 0.0
27/01:00am 30.3 31.7 18.7 50 7.6 N 9 13 5 7 1010.1 1008.6 0.0
27/12:30am 30.4 32.0 19.1 50 7.4 N 9 11 5 6 1010.3 1008.8 0.0
27/12:00am 31.0 32.7 18.0 45 8.4 NNE 6 9 3 5 1010.1 1008.6 0.0
 
Date/Time
CST
Temp
°C
App
Temp
°C
Dew
Point
°C
Rel
Hum
%
Delta-T
°C
Wind Press
QNH
hPa
Press
MSL
hPa
Rain since
9am
mm
Dir  Spd
km/h
Gust
km/h
Spd
kts
Gust
kts
26/11:30pm 30.9 32.6 18.6 48 8.0 NE 7 9 4 5 1010.3 1008.8 0.0
26/11:00pm 30.9 32.6 18.6 48 8.0 NE 7 7 4 4 1010.3 1008.8 0.0
26/10:30pm 31.6 33.0 18.6 46 8.5 NNE 9 11 5 6 1010.1 1008.6 0.0
26/10:00pm 32.5 33.7 18.3 43 9.3 NNE 9 13 5 7 1009.9 1008.4 0.0
26/09:30pm 32.9 34.5 18.3 42 9.6 NE 7 9 4 5 1009.8 1008.3 0.0
26/09:00pm 33.7 35.3 18.2 39 10.1 NE 7 9 4 5 1009.4 1007.8 0.0
26/08:30pm 34.1 35.7 18.2 39 10.4 NE 7 9 4 5 1009.1 1007.5 0.0
26/08:00pm 34.1 35.7 18.2 39 10.4 NE 7 11 4 6 1008.7 1007.1 0.0
26/07:30pm 34.7 35.9 17.4 35 11.2 NE 7 9 4 5 1008.3 1006.7 0.0
26/07:00pm 35.6 36.4 16.4 32 12.3 NE 7 9 4 5 1007.8 1006.2 0.0
26/06:30pm 35.8 36.1 16.0 30 12.7 E 9 11 5 6 1007.5 1005.9 0.0
26/06:00pm 37.3 37.3 16.3 29 13.5 E 11 17 6 9 1007.1 1005.5 0.0
26/05:30pm 38.2 36.9 15.9 26 14.4 E 17 26 9 14 1006.8 1005.2 0.0
26/05:00pm 38.6 39.7 15.7 26 14.7 SE 4 13 2 7 1006.6 1005.0 0.0
26/04:30pm 38.6 37.1 16.3 27 14.5 ESE 19 28 10 15 1006.4 1004.8 0.0
26/04:00pm 39.2 39.0 16.8 27 14.6 NE 13 24 7 13 1006.4 1004.8 0.0
26/03:30pm 38.8 38.9 17.5 28 14.0 SE 13 20 7 11 1006.6 1005.0 0.0
26/03:00pm 38.6 37.5 16.3 27 14.4 ENE 17 30 9 16 1007.0 1005.4 0.0
26/02:30pm 38.3 37.7 16.6 28 14.1 ESE 15 33 8 18 1007.2 1005.6 0.0
26/02:00pm 38.5 37.7 16.2 27 14.4 ENE 15 26 8 14 1007.7 1006.1 0.0
26/01:30pm 37.6 37.0 17.6 31 13.1 ENE 17 26 9 14 1008.3 1006.7 0.0
26/01:00pm 37.7 37.7 17.1 29 13.4 E 13 24 7 13 1008.9 1007.3 0.0
26/12:30pm 37.9 37.8 17.8 30 13.2 ENE 15 24 8 13 1009.5 1007.9 0.0

Other Formats:

Comma delimited format used in spreadsheet applications
http://www.bom.gov.au/fwo/IDD60801/IDD60801.94255.axf

JavaScript Object Notation format (JSON) in row-major order
http://www.bom.gov.au/fwo/IDD60801/IDD60801.94255.json